createdAt,value
2018-12-26T00:00:45.452Z,16.80
2018-12-26T00:06:20.507Z,16.30
2018-12-26T00:11:36.442Z,17.03
2018-12-26T00:16:52.372Z,16.50
2018-12-26T00:19:40.239Z,17.20
2018-12-26T00:22:29.558Z,17.67
2018-12-26T00:24:58.047Z,17.63
2018-12-26T00:27:26.589Z,18.00
2018-12-26T00:29:55.123Z,18.73
2018-12-26T00:32:23.615Z,18.23
2018-12-26T00:34:52.443Z,17.23
2018-12-26T00:37:20.938Z,17.67
2018-12-26T00:40:08.769Z,18.30
2018-12-26T00:42:37.233Z,17.67
2018-12-26T00:45:45.652Z,17.57
2018-12-26T00:48:14.133Z,18.20
2018-12-26T00:51:01.962Z,18.70
2018-12-26T00:53:30.442Z,17.23
2018-12-26T00:55:58.935Z,18.00
2018-12-26T00:58:46.530Z,19.23
2018-12-26T01:01:15.031Z,15.50
2018-12-26T01:03:43.509Z,17.77
2018-12-26T01:06:31.116Z,17.77
2018-12-26T01:08:59.591Z,17.60
2018-12-26T01:11:28.078Z,17.97
2018-12-26T01:14:15.679Z,17.63
2018-12-26T01:16:44.165Z,17.60
2018-12-26T01:19:31.767Z,15.90
2018-12-26T01:22:19.495Z,17.33
2018-12-26T01:25:07.325Z,18.30
2018-12-26T01:27:35.811Z,17.60
2018-12-26T01:30:44.545Z,18.20
2018-12-26T01:33:13.023Z,20.60
2018-12-26T01:35:41.510Z,18.97
2018-12-26T01:38:09.990Z,20.10
2018-12-26T01:40:57.595Z,20.40
2018-12-26T01:43:45.191Z,20.60
2018-12-26T01:48:47.651Z,21.27
2018-12-26T01:51:35.263Z,19.60
2018-12-26T01:54:03.751Z,19.97
2018-12-26T01:59:25.785Z,19.77
2018-12-26T02:01:54.289Z,21.17
2018-12-26T02:04:41.885Z,20.93
2018-12-26T02:07:10.378Z,22.73
2018-12-26T02:09:38.854Z,21.27
2018-12-26T02:12:26.595Z,22.67
2018-12-26T02:14:55.073Z,23.47
2018-12-26T02:17:23.559Z,22.40
2018-12-26T02:23:00.114Z,22.17
2018-12-26T02:25:47.720Z,21.37
2018-12-26T02:28:16.201Z,23.40
2018-12-26T02:30:44.701Z,23.00
2018-12-26T02:33:13.185Z,20.33
2018-12-26T02:35:41.668Z,23.20
2018-12-26T02:38:10.153Z,20.00
2018-12-26T02:40:57.910Z,22.97
2018-12-26T02:43:26.627Z,22.30
2018-12-26T02:45:55.107Z,22.80
2018-12-26T02:51:16.500Z,21.07
2018-12-26T02:53:44.981Z,21.03
2018-12-26T02:56:13.760Z,20.10
2018-12-26T02:58:42.234Z,22.90
2018-12-26T03:06:52.762Z,22.13
2018-12-26T03:09:21.239Z,21.13
2018-12-26T03:11:49.735Z,20.27
2018-12-26T03:14:18.215Z,20.57
2018-12-26T03:19:41.206Z,21.40
2018-12-26T03:24:43.401Z,20.90
2018-12-26T03:27:31.247Z,18.60
2018-12-26T03:29:59.726Z,19.40
2018-12-26T03:32:28.217Z,21.10
2018-12-26T03:35:15.943Z,20.63
2018-12-26T03:38:03.553Z,20.40
2018-12-26T03:40:32.031Z,21.90
2018-12-26T03:43:19.767Z,21.03
2018-12-26T03:46:28.156Z,20.57
2018-12-26T03:51:50.398Z,22.80
2018-12-26T03:54:18.889Z,20.77
2018-12-26T03:57:06.796Z,22.27
2018-12-26T03:59:35.219Z,21.23
2018-12-26T04:02:23.071Z,21.93
2018-12-26T04:08:18.918Z,23.80
2018-12-26T04:11:27.299Z,23.53
2018-12-26T04:14:15.133Z,24.33
2018-12-26T04:17:23.700Z,24.63
2018-12-26T04:20:32.096Z,26.70
2018-12-26T04:23:40.494Z,26.00
2018-12-26T04:26:28.091Z,25.50
2018-12-26T04:36:39.102Z,28.93
2018-12-26T04:39:07.590Z,28.40
2018-12-26T04:46:57.516Z,25.77
2018-12-26T04:49:26.008Z,27.70
2018-12-26T04:52:13.606Z,27.93
2018-12-26T04:55:01.210Z,27.07
2018-12-26T04:57:49.045Z,28.70
2018-12-26T05:00:17.530Z,29.90
2018-12-26T05:02:46.019Z,30.70
2018-12-26T05:05:33.616Z,25.73
2018-12-26T05:08:21.223Z,29.77
2018-12-26T05:13:56.485Z,27.30
2018-12-26T05:16:24.966Z,28.30
2018-12-26T05:24:20.952Z,28.70
2018-12-26T05:27:08.776Z,27.63
2018-12-26T05:29:56.412Z,28.70
2018-12-26T05:32:24.869Z,28.80
2018-12-26T05:34:53.360Z,28.90
2018-12-26T05:40:09.284Z,26.93
2018-12-26T05:42:57.111Z,29.27
2018-12-26T05:48:13.060Z,31.63
2018-12-26T05:50:41.553Z,31.63
2018-12-26T05:53:10.056Z,31.87
2018-12-26T05:55:57.656Z,32.00
2018-12-26T05:58:26.177Z,32.80
2018-12-26T06:00:54.663Z,35.23
2018-12-26T06:03:42.400Z,35.63
2018-12-26T06:06:10.894Z,35.10
2018-12-26T06:08:58.634Z,34.50
2018-12-26T06:11:27.123Z,35.30
2018-12-26T06:13:55.615Z,36.73
2018-12-26T06:16:24.097Z,33.30
2018-12-26T06:18:52.599Z,33.17
2018-12-26T06:21:40.347Z,32.67
2018-12-26T06:24:28.195Z,27.80
2018-12-26T06:26:56.688Z,34.40
2018-12-26T06:29:25.213Z,37.40
2018-12-26T06:31:53.696Z,39.13
2018-12-26T06:34:22.223Z,35.90
2018-12-26T06:39:38.306Z,34.27
2018-12-26T06:42:06.775Z,34.30
2018-12-26T06:44:35.285Z,36.57
2018-12-26T06:47:03.772Z,34.47
2018-12-26T06:49:32.279Z,35.53
2018-12-26T06:52:20.102Z,34.20
2018-12-26T06:54:48.862Z,35.60
2018-12-26T07:00:44.847Z,36.40
2018-12-26T07:03:32.572Z,33.60
2018-12-26T07:06:20.330Z,36.93
2018-12-26T07:11:36.286Z,37.80
2018-12-26T07:16:59.167Z,33.60
2018-12-26T07:19:47.010Z,28.70
2018-12-26T07:22:15.487Z,34.70
2018-12-26T07:24:44.006Z,33.77
2018-12-26T07:27:12.493Z,37.87
2018-12-26T07:30:00.223Z,36.73
2018-12-26T07:32:28.734Z,35.50
2018-12-26T07:34:57.242Z,36.40
2018-12-26T07:37:44.958Z,36.23
2018-12-26T07:40:13.450Z,35.63
2018-12-26T07:43:01.044Z,37.83
2018-12-26T07:45:41.807Z,34.70
2018-12-26T07:48:29.538Z,33.73
2018-12-26T07:50:58.057Z,35.33
2018-12-26T07:53:26.536Z,35.43
2018-12-26T07:55:55.047Z,32.50
2018-12-26T07:58:23.524Z,32.13
2018-12-26T08:03:26.431Z,33.30
2018-12-26T08:06:14.176Z,35.50
2018-12-26T08:08:42.707Z,34.90
2018-12-26T08:11:11.209Z,34.30
2018-12-26T08:13:39.688Z,35.40
2018-12-26T08:16:08.181Z,37.80
2018-12-26T08:18:55.787Z,38.77
2018-12-26T08:21:43.392Z,39.40
2018-12-26T08:26:59.332Z,37.33
2018-12-26T08:29:46.942Z,40.60
2018-12-26T08:34:49.467Z,42.37
2018-12-26T08:37:17.971Z,36.17
2018-12-26T08:39:46.462Z,35.53
2018-12-26T08:42:34.228Z,41.10
2018-12-26T08:50:24.045Z,40.63
2018-12-26T08:52:52.478Z,41.40
2018-12-26T08:55:20.960Z,41.60
2018-12-26T08:58:08.714Z,42.90
2018-12-26T09:00:37.186Z,40.83
2018-12-26T09:03:05.696Z,41.20
2018-12-26T09:05:34.172Z,39.37
2018-12-26T09:08:02.739Z,38.30
2018-12-26T09:13:18.689Z,39.47
2018-12-26T09:18:34.639Z,41.07
2018-12-26T09:21:03.168Z,41.70
2018-12-26T09:23:31.693Z,41.33
2018-12-26T09:26:40.103Z,42.53
2018-12-26T09:29:08.625Z,41.50
2018-12-26T09:31:37.150Z,45.37
2018-12-26T09:34:05.641Z,43.10
2018-12-26T09:36:53.505Z,46.80
2018-12-26T09:39:21.994Z,45.60
2018-12-26T09:41:50.541Z,47.60
2018-12-26T09:44:38.302Z,48.10
2018-12-26T09:47:26.091Z,49.93
2018-12-26T09:49:55.038Z,48.50
2018-12-26T09:52:23.649Z,47.53
2018-12-26T09:54:52.217Z,50.10
2018-12-26T09:57:20.756Z,49.53
2018-12-26T09:59:49.263Z,51.30
2018-12-26T10:02:36.931Z,50.15
2018-12-26T10:05:45.474Z,50.63
2018-12-26T10:08:33.209Z,53.87
2018-12-26T10:16:42.275Z,53.67
2018-12-26T10:19:30.012Z,53.13
2018-12-26T10:21:58.504Z,59.40
2018-12-26T10:24:26.986Z,57.93
2018-12-26T10:27:14.823Z,59.63
2018-12-26T10:29:43.304Z,61.20
2018-12-26T10:32:30.914Z,55.00
2018-12-26T10:34:59.395Z,52.80
2018-12-26T10:37:27.888Z,57.73
2018-12-26T10:39:56.373Z,55.50
2018-12-26T10:42:45.986Z,56.67
2018-12-26T10:45:14.319Z,46.97
2018-12-26T10:48:02.085Z,57.27
2018-12-26T10:50:30.555Z,58.63
2018-12-26T10:53:18.296Z,42.60
2018-12-26T10:55:46.786Z,57.57
2018-12-26T10:58:15.280Z,59.53
2018-12-26T11:00:43.772Z,56.17
2018-12-26T11:03:31.518Z,56.43
2018-12-26T11:06:00.001Z,49.20
2018-12-26T11:08:47.740Z,57.70
2018-12-26T11:11:16.225Z,51.37
2018-12-26T11:14:03.969Z,58.20
2018-12-26T11:16:32.457Z,58.70
2018-12-26T11:19:20.310Z,47.20
2018-12-26T11:21:48.803Z,55.57
2018-12-26T11:24:36.544Z,61.63
2018-12-26T11:29:52.498Z,57.70
2018-12-26T11:32:40.343Z,56.47
2018-12-26T11:35:48.750Z,59.87
2018-12-26T11:38:36.565Z,49.27
2018-12-26T11:41:05.271Z,61.97
2018-12-26T11:43:54.316Z,63.40
2018-12-26T11:46:22.799Z,64.27
2018-12-26T11:49:10.632Z,61.50
2018-12-26T11:54:45.683Z,57.00
2018-12-26T12:00:40.073Z,63.40
2018-12-26T12:03:27.826Z,68.67
2018-12-26T12:06:15.568Z,64.00
2018-12-26T12:09:03.189Z,63.70
2018-12-26T12:11:31.669Z,56.07
2018-12-26T12:14:19.275Z,62.00
2018-12-26T12:16:47.760Z,61.57
2018-12-26T12:19:16.262Z,64.13
2018-12-26T12:22:03.991Z,65.23
2018-12-26T12:27:06.144Z,62.80
2018-12-26T12:29:53.885Z,61.23
2018-12-26T12:32:22.375Z,58.47
2018-12-26T12:34:50.864Z,65.07
2018-12-26T12:37:19.347Z,62.67
2018-12-26T12:39:47.840Z,59.87
2018-12-26T12:42:16.326Z,61.10
2018-12-26T12:44:44.816Z,59.93
2018-12-26T12:47:32.641Z,62.27
2018-12-26T12:50:01.131Z,60.17
2018-12-26T12:55:17.071Z,59.13
2018-12-26T12:58:04.802Z,61.67
2018-12-26T13:06:21.097Z,57.87
2018-12-26T13:08:49.583Z,52.17
2018-12-26T13:11:37.197Z,54.97
2018-12-26T13:14:24.927Z,52.30
2018-12-26T13:16:53.424Z,52.77
2018-12-26T13:19:41.025Z,52.37
2018-12-26T13:24:43.502Z,55.63
2018-12-26T13:27:11.998Z,53.87
2018-12-26T13:29:59.821Z,57.17
2018-12-26T13:32:28.318Z,51.53
2018-12-26T13:35:16.047Z,55.57
2018-12-26T13:38:03.795Z,50.30
2018-12-26T13:40:32.281Z,48.93
2018-12-26T13:43:00.770Z,54.13
2018-12-26T13:45:29.255Z,58.83
2018-12-26T13:50:51.291Z,55.70
2018-12-26T13:53:39.019Z,58.43
2018-12-26T13:56:07.515Z,55.97
2018-12-26T14:01:30.286Z,60.30
2018-12-26T14:04:17.884Z,59.83
2018-12-26T14:06:46.376Z,54.37
2018-12-26T14:09:14.860Z,56.07
2018-12-26T14:12:02.472Z,64.17
2018-12-26T14:17:18.408Z,59.50
2018-12-26T14:22:34.342Z,59.97
2018-12-26T14:27:50.280Z,58.70
2018-12-26T14:30:37.884Z,62.15
2018-12-26T14:33:06.493Z,62.53
2018-12-26T14:35:36.582Z,68.20
2018-12-26T14:38:24.191Z,61.40
2018-12-26T14:40:52.676Z,69.47
2018-12-26T14:43:21.171Z,67.73
2018-12-26T14:46:08.903Z,70.43
2018-12-26T14:48:37.397Z,68.33
2018-12-26T14:51:26.499Z,70.33
2018-12-26T14:53:55.575Z,68.27
2018-12-26T14:56:43.177Z,77.13
2018-12-26T14:59:11.666Z,67.70
2018-12-26T15:02:20.063Z,65.73
2018-12-26T15:04:48.555Z,73.27
2018-12-26T15:07:17.258Z,71.77
2018-12-26T15:09:47.260Z,69.67
2018-12-26T15:12:34.862Z,65.67
2018-12-26T15:15:03.357Z,59.10
2018-12-26T15:17:51.193Z,65.30
2018-12-26T15:20:38.928Z,67.30
2018-12-26T15:23:07.425Z,63.10
2018-12-26T15:25:35.911Z,63.97
2018-12-26T15:28:23.526Z,62.87
2018-12-26T15:36:32.739Z,63.57
2018-12-26T15:39:01.229Z,68.03
2018-12-26T15:41:48.965Z,68.30
2018-12-26T15:44:17.464Z,72.17
2018-12-26T15:46:45.942Z,62.00
2018-12-26T15:49:14.435Z,61.80
2018-12-26T15:51:42.922Z,60.00
2018-12-26T15:54:11.420Z,66.97
2018-12-26T15:56:59.241Z,58.67
2018-12-26T15:59:46.975Z,61.60
2018-12-26T16:02:15.460Z,67.07
2018-12-26T16:04:43.956Z,59.40
2018-12-26T16:07:31.684Z,60.73
2018-12-26T16:10:00.180Z,62.37
2018-12-26T16:12:28.663Z,45.83
2018-12-26T16:14:57.163Z,64.60
2018-12-26T16:17:25.649Z,70.07
2018-12-26T16:20:13.391Z,63.17
2018-12-26T16:22:42.181Z,60.70
2018-12-26T16:25:10.675Z,62.50
2018-12-26T16:27:58.408Z,60.67
2018-12-26T16:30:46.543Z,61.40
2018-12-26T16:33:35.612Z,62.00
2018-12-26T16:38:58.395Z,68.20
2018-12-26T16:46:35.108Z,61.43
2018-12-26T16:51:51.040Z,58.37
2018-12-26T16:54:19.605Z,61.57
2018-12-26T16:56:48.094Z,61.17
2018-12-26T16:59:16.576Z,64.17
2018-12-26T17:02:04.322Z,64.77
2018-12-26T17:04:51.933Z,60.20
2018-12-26T17:07:39.669Z,62.37
2018-12-26T17:10:48.075Z,60.97
2018-12-26T17:13:35.897Z,60.93
2018-12-26T17:16:23.637Z,57.07
2018-12-26T17:19:11.464Z,60.23
2018-12-26T17:21:39.955Z,59.70
2018-12-26T17:27:01.579Z,59.60
2018-12-26T17:29:49.319Z,61.43
2018-12-26T17:32:17.807Z,57.07
2018-12-26T17:35:05.569Z,63.27
2018-12-26T17:37:34.033Z,59.30
2018-12-26T17:40:21.874Z,55.60
2018-12-26T17:43:09.620Z,53.53
2018-12-26T17:45:38.112Z,57.47
2018-12-26T17:48:06.595Z,54.20
2018-12-26T17:50:54.435Z,52.00
2018-12-26T17:54:02.831Z,52.43
2018-12-26T17:57:11.232Z,48.57
2018-12-26T18:00:19.647Z,45.13
2018-12-26T18:02:48.127Z,44.90
2018-12-26T18:08:04.068Z,44.90
2018-12-26T18:10:32.555Z,47.30
2018-12-26T18:13:20.156Z,46.53
2018-12-26T18:16:07.900Z,47.40
2018-12-26T18:18:55.495Z,45.47
2018-12-26T18:21:23.998Z,45.70
2018-12-26T18:24:11.732Z,46.70
2018-12-26T18:26:40.223Z,49.70
2018-12-26T18:29:08.702Z,50.80
2018-12-26T18:31:37.207Z,50.00
2018-12-26T18:34:25.031Z,49.87
2018-12-26T18:36:53.525Z,47.37
2018-12-26T18:39:41.256Z,45.57
2018-12-26T18:42:29.087Z,50.30
2018-12-26T18:45:16.711Z,49.97
2018-12-26T18:48:04.320Z,49.57
2018-12-26T18:50:32.835Z,50.87
2018-12-26T18:53:20.418Z,50.90
2018-12-26T18:55:48.909Z,54.77
2018-12-26T18:58:17.410Z,50.20
2018-12-26T19:01:05.015Z,52.67
2018-12-26T19:03:33.507Z,54.10
2018-12-26T19:06:21.116Z,51.57
2018-12-26T19:08:49.599Z,50.10
2018-12-26T19:11:18.079Z,50.00
2018-12-26T19:14:05.688Z,52.00
2018-12-26T19:16:53.530Z,52.57
2018-12-26T19:19:41.266Z,48.77
2018-12-26T19:22:29.009Z,51.90
2018-12-26T19:24:57.493Z,46.03
2018-12-26T19:27:25.988Z,47.47
2018-12-26T19:29:59.302Z,49.47
2018-12-26T19:32:43.943Z,49.70
2018-12-26T19:35:52.349Z,51.87
2018-12-26T19:38:20.859Z,52.57
2018-12-26T19:40:49.368Z,50.43
2018-12-26T19:43:37.223Z,49.03
2018-12-26T19:46:05.710Z,53.87
2018-12-26T19:48:53.359Z,55.07
2018-12-26T19:51:41.187Z,50.73
2018-12-26T19:54:09.741Z,49.40
2018-12-26T19:56:38.295Z,52.70
2018-12-26T19:59:06.890Z,49.90
2018-12-26T20:01:54.759Z,51.90
2018-12-26T20:04:42.716Z,50.33
2018-12-26T20:07:11.243Z,49.07
2018-12-26T20:09:59.101Z,49.93
2018-12-26T20:12:47.024Z,43.97
2018-12-26T20:15:34.690Z,44.77
2018-12-26T20:18:22.396Z,48.27
2018-12-26T20:20:51.003Z,49.37
2018-12-26T20:23:38.947Z,49.50
2018-12-26T20:26:07.435Z,47.80
2018-12-26T20:28:55.202Z,44.93
2018-12-26T20:31:23.709Z,50.80
2018-12-26T20:33:52.255Z,53.60
2018-12-26T20:36:40.091Z,52.20
2018-12-26T20:41:42.424Z,46.63
2018-12-26T20:44:30.243Z,49.17
2018-12-26T20:46:58.776Z,49.70
2018-12-26T20:49:46.565Z,50.07
2018-12-26T20:52:15.050Z,41.20
2018-12-26T20:54:43.546Z,46.00
2018-12-26T20:57:12.052Z,45.17
2018-12-26T21:04:48.536Z,39.10
2018-12-26T21:07:36.353Z,41.30
2018-12-26T21:10:44.900Z,43.93
2018-12-26T21:13:32.673Z,41.40
2018-12-26T21:16:01.179Z,41.00
2018-12-26T21:18:29.680Z,39.00
2018-12-26T21:21:17.561Z,42.50
2018-12-26T21:24:05.309Z,40.03
2018-12-26T21:26:53.086Z,40.33
2018-12-26T21:29:21.685Z,39.00
2018-12-26T21:31:50.229Z,43.40
2018-12-26T21:34:38.055Z,42.67
2018-12-26T21:37:25.870Z,42.23
2018-12-26T21:39:54.480Z,44.20
2018-12-26T21:42:42.116Z,46.20
2018-12-26T21:45:10.707Z,40.17
2018-12-26T21:47:58.484Z,43.67
2018-12-26T21:50:27.013Z,41.00
2018-12-26T21:53:14.785Z,40.27
2018-12-26T21:56:02.536Z,40.07
2018-12-26T21:58:31.038Z,39.43
2018-12-26T22:00:59.559Z,43.00
2018-12-26T22:03:47.416Z,40.90
2018-12-26T22:09:08.738Z,40.63
2018-12-26T22:11:37.272Z,40.23
2018-12-26T22:14:05.775Z,41.77
2018-12-26T22:16:34.269Z,41.83
2018-12-26T22:19:02.788Z,39.60
2018-12-26T22:21:50.526Z,43.80
2018-12-26T22:27:06.504Z,42.23
2018-12-26T22:29:54.315Z,40.30
2018-12-26T22:32:30.423Z,42.00
2018-12-26T22:34:53.130Z,41.73
2018-12-26T22:37:21.662Z,38.90
2018-12-26T22:39:50.196Z,43.87
2018-12-26T22:42:18.736Z,40.80
2018-12-26T22:44:47.220Z,42.27
2018-12-26T22:47:15.718Z,38.57
2018-12-26T22:49:44.319Z,39.40
2018-12-26T22:52:12.879Z,37.30
2018-12-26T22:54:41.474Z,38.60
2018-12-26T22:57:10.012Z,38.00
2018-12-26T22:59:38.496Z,38.87
2018-12-26T23:04:46.234Z,40.33
2018-12-26T23:07:14.811Z,39.73
2018-12-26T23:10:02.537Z,39.50
2018-12-26T23:15:44.928Z,37.30
2018-12-26T23:18:32.753Z,34.80
2018-12-26T23:21:01.237Z,36.87
2018-12-26T23:23:49.072Z,38.97
2018-12-26T23:26:36.670Z,39.17
2018-12-26T23:29:05.245Z,36.37
2018-12-26T23:37:34.355Z,41.30
2018-12-26T23:43:10.918Z,39.87
2018-12-26T23:45:39.399Z,44.03
2018-12-26T23:48:27.007Z,42.00
2018-12-26T23:54:02.055Z,36.47
2018-12-26T23:56:30.532Z,33.23
2018-12-26T23:58:59.028Z,35.57
